sensor_id;sensor_type;location;lat;lon;timestamp;pressure;altitude;pressure_sealevel;temperature;humidity
63347;BME280;49472;49.880;8.650;2023-07-09T00:02:12;36113.84;;;-142.94;nan
63347;BME280;49472;49.880;8.650;2023-07-09T00:04:37;29435.06;;;-142.94;nan
63347;BME280;49472;49.880;8.650;2023-07-09T00:07:03;19318.72;;;-142.94;nan
63347;BME280;49472;49.880;8.650;2023-07-09T00:09:30;8496.38;;;-142.94;nan
63347;BME280;49472;49.880;8.650;2023-07-09T00:11:55;18087.13;;;-142.94;nan
63347;BME280;49472;49.880;8.650;2023-07-09T00:14:21;20550.78;;;-142.94;nan
63347;BME280;49472;49.880;8.650;2023-07-09T00:16:46;12181.84;;;-142.94;nan
63347;BME280;49472;49.880;8.650;2023-07-09T00:19:19;11936.00;;;-142.94;nan
63347;BME280;49472;49.880;8.650;2023-07-09T00:21:48;18087.13;;;-142.94;nan
63347;BME280;49472;49.880;8.650;2023-07-09T00:24:14;10461.44;;;-142.94;nan
63347;BME280;49472;49.880;8.650;2023-07-09T00:26:40;7023.34;;;-142.94;nan
63347;BME280;49472;49.880;8.650;2023-07-09T00:29:10;10461.44;;;-142.94;nan
63347;BME280;49472;49.880;8.650;2023-07-09T00:31:36;10952.91;;;-142.94;nan
63347;BME280;49472;49.880;8.650;2023-07-09T00:34:10;10707.16;;;-142.94;nan
63347;BME280;49472;49.880;8.650;2023-07-09T00:36:39;11198.66;;;-142.94;nan
63347;BME280;49472;49.880;8.650;2023-07-09T00:39:05;5796.31;;;-142.94;nan
63347;BME280;49472;49.880;8.650;2023-07-09T00:41:35;7759.78;;;-142.94;nan
63347;BME280;49472;49.880;8.650;2023-07-09T00:44:23;6287.09;;;-142.94;nan
63347;BME280;49472;49.880;8.650;2023-07-09T00:49:26;6777.91;;;-142.94;nan
63347;BME280;49472;49.880;8.650;2023-07-09T00:51:56;3834.03;;;-142.94;nan
63347;BME280;49472;49.880;8.650;2023-07-09T00:54:39;8005.28;;;-142.94;nan
63347;BME280;49472;49.880;8.650;2023-07-09T00:57:11;16856.00;;;-142.94;nan
63347;BME280;49472;49.880;8.650;2023-07-09T00:59:39;12919.44;;;-142.94;nan
63347;BME280;49472;49.880;8.650;2023-07-09T01:02:07;12673.53;;;-142.94;nan
63347;BME280;49472;49.880;8.650;2023-07-09T01:04:33;12919.44;;;-142.94;nan
63347;BME280;49472;49.880;8.650;2023-07-09T01:06:58;3834.03;;;-142.94;nan
63347;BME280;49472;49.880;8.650;2023-07-09T01:09:24;402.84;;;-142.94;nan
63347;BME280;49472;49.880;8.650;2023-07-09T01:11:50;8250.81;;;-142.94;nan
63347;BME280;49472;49.880;8.650;2023-07-09T01:14:19;13411.25;;;-142.94;nan
63347;BME280;49472;49.880;8.650;2023-07-09T01:16:49;10461.44;;;-142.94;nan
63347;BME280;49472;49.880;8.650;2023-07-09T01:19:25;3588.84;;;-142.94;nan
63347;BME280;49472;49.880;8.650;2023-07-09T01:22:00;4815.03;;;-142.94;nan
63347;BME280;49472;49.880;8.650;2023-07-09T01:27:13;892.81;;;-142.94;nan
63347;BME280;49472;49.880;8.650;2023-07-09T01:29:38;-4248.00;;;-142.94;nan
63347;BME280;49472;49.880;8.650;2023-07-09T01:32:05;-3758.75;;;-142.94;nan
63347;BME280;49472;49.880;8.650;2023-07-09T01:34:32;1872.94;;;-142.94;nan
63347;BME280;49472;49.880;8.650;2023-07-09T01:36:57;1137.81;;;-142.94;nan
63347;BME280;49472;49.880;8.650;2023-07-09T01:39:23;-3024.75;;;-142.94;nan
63347;BME280;49472;49.880;8.650;2023-07-09T01:41:49;-10357.50;;;-142.94;nan
63347;BME280;49472;49.880;8.650;2023-07-09T01:44:14;-5715.34;;;-142.94;nan
63347;BME280;49472;49.880;8.650;2023-07-09T01:46:40;-7182.00;;;-142.94;nan
63347;BME280;49472;49.880;8.650;2023-07-09T01:49:07;-8403.72;;;-142.94;nan
63347;BME280;49472;49.880;8.650;2023-07-09T01:51:34;-4737.19;;;-142.94;nan
63347;BME280;49472;49.880;8.650;2023-07-09T01:54:01;-9869.19;;;-142.94;nan
63347;BME280;49472;49.880;8.650;2023-07-09T01:56:26;-9869.19;;;-142.94;nan
63347;BME280;49472;49.880;8.650;2023-07-09T01:58:52;-5715.34;;;-142.94;nan
63347;BME280;49472;49.880;8.650;2023-07-09T02:01:17;-11333.97;;;-142.94;nan
63347;BME280;49472;49.880;8.650;2023-07-09T02:03:45;-13531.38;;;-142.94;nan
63347;BME280;49472;49.880;8.650;2023-07-09T02:06:10;-13042.06;;;-142.94;nan
63347;BME280;49472;49.880;8.650;2023-07-09T02:08:36;-13531.38;;;-142.94;nan
63347;BME280;49472;49.880;8.650;2023-07-09T02:11:01;-11333.97;;;-142.94;nan
63347;BME280;49472;49.880;8.650;2023-07-09T02:13:27;-12554.13;;;-142.94;nan
63347;BME280;49472;49.880;8.650;2023-07-09T02:15:52;-12310.13;;;-142.94;nan
63347;BME280;49472;49.880;8.650;2023-07-09T02:18:17;-11822.09;;;-142.94;nan
63347;BME280;49472;49.880;8.650;2023-07-09T02:20:46;-11333.97;;;-142.94;nan
63347;BME280;49472;49.880;8.650;2023-07-09T02:23:11;-11822.09;;;-142.94;nan
63347;BME280;49472;49.880;8.650;2023-07-09T02:25:36;-12798.13;;;-142.94;nan
63347;BME280;49472;49.880;8.650;2023-07-09T02:28:04;-11578.03;;;-142.94;nan
63347;BME280;49472;49.880;8.650;2023-07-09T02:30:30;-13531.38;;;-142.94;nan
63347;BME280;49472;49.880;8.650;2023-07-09T02:32:55;-13531.38;;;-142.94;nan
63347;BME280;49472;49.880;8.650;2023-07-09T02:35:22;-13531.38;;;-142.94;nan
63347;BME280;49472;49.880;8.650;2023-07-09T02:37:48;-13531.38;;;-142.94;nan
63347;BME280;49472;49.880;8.650;2023-07-09T02:40:16;-13286.00;;;-142.94;nan
63347;BME280;49472;49.880;8.650;2023-07-09T02:42:41;-13531.38;;;-142.94;nan
63347;BME280;49472;49.880;8.650;2023-07-09T02:45:08;-13531.38;;;-142.94;nan
63347;BME280;49472;49.880;8.650;2023-07-09T02:47:33;-13531.38;;;-142.94;nan
63347;BME280;49472;49.880;8.650;2023-07-09T02:49:59;-13531.38;;;-142.94;nan
63347;BME280;49472;49.880;8.650;2023-07-09T02:52:24;-13531.38;;;-142.94;nan
63347;BME280;49472;49.880;8.650;2023-07-09T02:54:49;-13531.38;;;-142.94;nan
63347;BME280;49472;49.880;8.650;2023-07-09T02:57:15;-13531.38;;;-142.94;nan
63347;BME280;49472;49.880;8.650;2023-07-09T02:59:40;-13531.38;;;-142.94;nan
63347;BME280;49472;49.880;8.650;2023-07-09T03:02:05;-13531.38;;;-142.94;nan
63347;BME280;49472;49.880;8.650;2023-07-09T03:04:31;-13531.38;;;-142.94;nan
63347;BME280;49472;49.880;8.650;2023-07-09T03:06:57;-13531.38;;;-142.94;nan
63347;BME280;49472;49.880;8.650;2023-07-09T03:09:22;-13531.38;;;-142.94;nan
63347;BME280;49472;49.880;8.650;2023-07-09T03:11:48;-13531.38;;;-142.94;nan
63347;BME280;49472;49.880;8.650;2023-07-09T03:14:14;-13531.38;;;-142.94;nan
63347;BME280;49472;49.880;8.650;2023-07-09T03:16:39;-13531.38;;;-142.94;nan
63347;BME280;49472;49.880;8.650;2023-07-09T03:19:05;-13531.38;;;-142.94;nan
63347;BME280;49472;49.880;8.650;2023-07-09T03:21:30;-13531.38;;;-142.94;nan
63347;BME280;49472;49.880;8.650;2023-07-09T03:23:56;-13531.38;;;-142.94;nan
63347;BME280;49472;49.880;8.650;2023-07-09T03:26:22;-13531.38;;;-142.94;nan
63347;BME280;49472;49.880;8.650;2023-07-09T03:28:47;-13531.38;;;-142.94;nan
63347;BME280;49472;49.880;8.650;2023-07-09T03:31:13;-13531.38;;;-142.94;nan
63347;BME280;49472;49.880;8.650;2023-07-09T03:33:39;-13531.38;;;-142.94;nan
63347;BME280;49472;49.880;8.650;2023-07-09T03:36:05;-13531.38;;;-142.94;nan
63347;BME280;49472;49.880;8.650;2023-07-09T03:38:31;-13531.38;;;-142.94;nan
63347;BME280;49472;49.880;8.650;2023-07-09T03:40:57;-13531.38;;;-142.94;nan
63347;BME280;49472;49.880;8.650;2023-07-09T03:43:23;-13531.38;;;-142.94;nan
63347;BME280;49472;49.880;8.650;2023-07-09T03:45:49;-13531.38;;;-142.94;nan
63347;BME280;49472;49.880;8.650;2023-07-09T03:48:16;-13531.38;;;-142.94;nan
63347;BME280;49472;49.880;8.650;2023-07-09T03:50:43;-13531.38;;;-142.94;nan
63347;BME280;49472;49.880;8.650;2023-07-09T03:53:09;-13531.38;;;-142.94;nan
63347;BME280;49472;49.880;8.650;2023-07-09T03:55:35;-13531.38;;;-142.94;nan
63347;BME280;49472;49.880;8.650;2023-07-09T03:58:00;-13531.38;;;-142.94;nan
63347;BME280;49472;49.880;8.650;2023-07-09T04:00:28;-13531.38;;;-142.94;nan
63347;BME280;49472;49.880;8.650;2023-07-09T04:02:53;-13531.38;;;-142.94;nan
63347;BME280;49472;49.880;8.650;2023-07-09T04:05:20;-13531.38;;;-142.94;nan
63347;BME280;49472;49.880;8.650;2023-07-09T04:07:46;-13531.38;;;-142.94;nan
63347;BME280;49472;49.880;8.650;2023-07-09T04:10:11;-13531.38;;;-142.94;nan
63347;BME280;49472;49.880;8.650;2023-07-09T04:12:37;-13531.38;;;-142.94;nan
63347;BME280;49472;49.880;8.650;2023-07-09T04:15:06;-13531.38;;;-142.94;nan
63347;BME280;49472;49.880;8.650;2023-07-09T04:17:32;-13531.38;;;-142.94;nan
63347;BME280;49472;49.880;8.650;2023-07-09T04:19:57;-13531.38;;;-142.94;nan
63347;BME280;49472;49.880;8.650;2023-07-09T04:22:22;-13531.38;;;-142.94;nan
63347;BME280;49472;49.880;8.650;2023-07-09T04:24:48;-13531.38;;;-142.94;nan
63347;BME280;49472;49.880;8.650;2023-07-09T04:27:14;-13531.38;;;-142.94;nan
63347;BME280;49472;49.880;8.650;2023-07-09T04:29:40;-13531.38;;;-142.94;nan
63347;BME280;49472;49.880;8.650;2023-07-09T04:32:12;-13531.38;;;-142.94;nan
63347;BME280;49472;49.880;8.650;2023-07-09T04:34:38;-13531.38;;;-142.94;nan
63347;BME280;49472;49.880;8.650;2023-07-09T04:37:08;-13531.38;;;-142.94;nan
63347;BME280;49472;49.880;8.650;2023-07-09T04:39:34;-13531.38;;;-142.94;nan
63347;BME280;49472;49.880;8.650;2023-07-09T04:42:00;-13531.38;;;-142.94;nan
63347;BME280;49472;49.880;8.650;2023-07-09T04:44:25;-13531.38;;;-142.94;nan
63347;BME280;49472;49.880;8.650;2023-07-09T04:46:51;-13531.38;;;-142.94;nan
63347;BME280;49472;49.880;8.650;2023-07-09T04:49:16;-13531.38;;;-142.94;nan
63347;BME280;49472;49.880;8.650;2023-07-09T04:51:41;-13531.38;;;-142.94;nan
63347;BME280;49472;49.880;8.650;2023-07-09T04:54:07;-13531.38;;;-142.94;nan
63347;BME280;49472;49.880;8.650;2023-07-09T04:56:32;-13531.38;;;-142.94;nan
63347;BME280;49472;49.880;8.650;2023-07-09T04:58:58;-13531.38;;;-142.94;nan
63347;BME280;49472;49.880;8.650;2023-07-09T05:01:23;-13531.38;;;-142.94;nan
63347;BME280;49472;49.880;8.650;2023-07-09T05:03:48;-13531.38;;;-142.94;nan
63347;BME280;49472;49.880;8.650;2023-07-09T05:06:14;-13531.38;;;-142.94;nan
63347;BME280;49472;49.880;8.650;2023-07-09T05:08:39;-13531.38;;;-142.94;nan
63347;BME280;49472;49.880;8.650;2023-07-09T05:11:05;-13531.38;;;-142.94;nan
63347;BME280;49472;49.880;8.650;2023-07-09T05:13:30;-13531.38;;;-142.94;nan
63347;BME280;49472;49.880;8.650;2023-07-09T05:15:56;-13531.38;;;-142.94;nan
63347;BME280;49472;49.880;8.650;2023-07-09T05:18:21;-13531.38;;;-142.94;nan
63347;BME280;49472;49.880;8.650;2023-07-09T05:20:47;-13531.38;;;-142.94;nan
63347;BME280;49472;49.880;8.650;2023-07-09T05:23:15;-13531.38;;;-142.94;nan
63347;BME280;49472;49.880;8.650;2023-07-09T05:25:40;-13531.38;;;-142.94;nan
63347;BME280;49472;49.880;8.650;2023-07-09T05:28:06;-13531.38;;;-142.94;nan
63347;BME280;49472;49.880;8.650;2023-07-09T05:30:32;-13531.38;;;-142.94;nan
63347;BME280;49472;49.880;8.650;2023-07-09T05:32:57;-13531.38;;;-142.94;nan
63347;BME280;49472;49.880;8.650;2023-07-09T05:35:25;-13531.38;;;-142.94;nan
63347;BME280;49472;49.880;8.650;2023-07-09T05:37:53;-13531.38;;;-142.94;nan
63347;BME280;49472;49.880;8.650;2023-07-09T05:40:20;-13531.38;;;-142.94;nan
63347;BME280;49472;49.880;8.650;2023-07-09T05:42:45;-13531.38;;;-142.94;nan
63347;BME280;49472;49.880;8.650;2023-07-09T05:45:11;-13531.38;;;-142.94;nan
63347;BME280;49472;49.880;8.650;2023-07-09T05:47:36;-13531.38;;;-142.94;nan
63347;BME280;49472;49.880;8.650;2023-07-09T05:50:02;-13531.38;;;-142.94;nan
63347;BME280;49472;49.880;8.650;2023-07-09T05:52:28;-13531.38;;;-142.94;nan
63347;BME280;49472;49.880;8.650;2023-07-09T05:54:54;-13531.38;;;-142.94;nan
63347;BME280;49472;49.880;8.650;2023-07-09T05:57:20;-13531.38;;;-142.94;nan
63347;BME280;49472;49.880;8.650;2023-07-09T05:59:46;-13531.38;;;-142.94;nan
63347;BME280;49472;49.880;8.650;2023-07-09T06:02:13;-13529.94;;;-142.94;nan
63347;BME280;49472;49.880;8.650;2023-07-09T06:04:39;-13531.38;;;-142.94;nan
63347;BME280;49472;49.880;8.650;2023-07-09T06:07:04;-13531.38;;;-142.94;nan
63347;BME280;49472;49.880;8.650;2023-07-09T06:09:30;-13531.38;;;-142.94;nan
63347;BME280;49472;49.880;8.650;2023-07-09T06:11:57;-12554.13;;;-142.94;nan
63347;BME280;49472;49.880;8.650;2023-07-09T06:14:22;-11822.09;;;-142.94;nan
63347;BME280;49472;49.880;8.650;2023-07-09T06:16:47;-11578.03;;;-142.94;nan
63347;BME280;49472;49.880;8.650;2023-07-09T06:19:13;-12066.13;;;-142.94;nan
63347;BME280;49472;49.880;8.650;2023-07-09T06:21:39;-10601.66;;;-142.94;nan
63347;BME280;49472;49.880;8.650;2023-07-09T06:24:06;-10601.66;;;-142.94;nan
63347;BME280;49472;49.880;8.650;2023-07-09T06:26:31;-11089.88;;;-142.94;nan
63347;BME280;49472;49.880;8.650;2023-07-09T06:28:56;-10601.66;;;-142.94;nan
63347;BME280;49472;49.880;8.650;2023-07-09T06:31:22;-10357.50;;;-142.94;nan
63347;BME280;49472;49.880;8.650;2023-07-09T06:33:49;-7915.09;;;-142.94;nan
63347;BME280;49472;49.880;8.650;2023-07-09T06:36:14;-6448.75;;;-142.94;nan
63347;BME280;49472;49.880;8.650;2023-07-09T06:38:40;-7915.09;;;-142.94;nan
63347;BME280;49472;49.880;8.650;2023-07-09T06:41:05;-8648.00;;;-142.94;nan
63347;BME280;49472;49.880;8.650;2023-07-09T06:43:30;-6204.28;;;-142.94;nan
63347;BME280;49472;49.880;8.650;2023-07-09T06:46:00;-6204.28;;;-142.94;nan
63347;BME280;49472;49.880;8.650;2023-07-09T06:48:28;-3758.75;;;-142.94;nan
63347;BME280;49472;49.880;8.650;2023-07-09T06:50:55;-4003.41;;;-142.94;nan
63347;BME280;49472;49.880;8.650;2023-07-09T06:53:21;-2535.31;;;-142.94;nan
63347;BME280;49472;49.880;8.650;2023-07-09T06:55:47;-4492.63;;;-142.94;nan
63347;BME280;49472;49.880;8.650;2023-07-09T06:58:17;-5226.31;;;-142.94;nan
63347;BME280;49472;49.880;8.650;2023-07-09T07:00:45;-5226.31;;;-142.94;nan
63347;BME280;49472;49.880;8.650;2023-07-09T07:03:11;-4003.41;;;-142.94;nan
63347;BME280;49472;49.880;8.650;2023-07-09T07:05:36;-3758.75;;;-142.94;nan
63347;BME280;49472;49.880;8.650;2023-07-09T07:08:02;-3514.09;;;-142.94;nan
63347;BME280;49472;49.880;8.650;2023-07-09T07:10:29;-3024.75;;;-142.94;nan
63347;BME280;49472;49.880;8.650;2023-07-09T07:12:55;-2535.31;;;-142.94;nan
63347;BME280;49472;49.880;8.650;2023-07-09T07:15:20;-3269.44;;;-142.94;nan
63347;BME280;49472;49.880;8.650;2023-07-09T07:17:46;-2290.56;;;-142.94;nan
63347;BME280;49472;49.880;8.650;2023-07-09T07:20:13;-3269.44;;;-142.94;nan
63347;BME280;49472;49.880;8.650;2023-07-09T07:22:39;-2535.31;;;-142.94;nan
63347;BME280;49472;49.880;8.650;2023-07-09T07:25:05;-87.03;;;-142.94;nan
63347;BME280;49472;49.880;8.650;2023-07-09T07:27:31;-87.03;;;-142.94;nan
63347;BME280;49472;49.880;8.650;2023-07-09T07:29:56;1137.81;;;-142.94;nan
63347;BME280;49472;49.880;8.650;2023-07-09T07:32:24;892.81;;;-142.94;nan
63347;BME280;49472;49.880;8.650;2023-07-09T07:34:49;1627.88;;;-142.94;nan
63347;BME280;49472;49.880;8.650;2023-07-09T07:37:17;1382.84;;;-142.94;nan
63347;BME280;49472;49.880;8.650;2023-07-09T07:39:44;2853.34;;;-142.94;nan
63347;BME280;49472;49.880;8.650;2023-07-09T07:42:09;5796.31;;;-142.94;nan
63347;BME280;49472;49.880;8.650;2023-07-09T07:44:35;6532.47;;;-142.94;nan
63347;BME280;49472;49.880;8.650;2023-07-09T07:47:01;4815.03;;;-142.94;nan
63347;BME280;49472;49.880;8.650;2023-07-09T07:49:26;4569.75;;;-142.94;nan
63347;BME280;49472;49.880;8.650;2023-07-09T07:51:52;6041.69;;;-142.94;nan
63347;BME280;49472;49.880;8.650;2023-07-09T07:54:17;6287.09;;;-142.94;nan
63347;BME280;49472;49.880;8.650;2023-07-09T07:56:43;8741.94;;;-142.94;nan
63347;BME280;49472;49.880;8.650;2023-07-09T07:59:08;8987.53;;;-142.94;nan
63347;BME280;49472;49.880;8.650;2023-07-09T08:01:34;8987.53;;;-142.94;nan
63347;BME280;49472;49.880;8.650;2023-07-09T08:04:05;8250.81;;;-142.94;nan
63347;BME280;49472;49.880;8.650;2023-07-09T08:06:30;8987.53;;;-142.94;nan
63347;BME280;49472;49.880;8.650;2023-07-09T08:08:57;9478.75;;;-142.94;nan
63347;BME280;49472;49.880;8.650;2023-07-09T08:11:22;8987.53;;;-142.94;nan
63347;BME280;49472;49.880;8.650;2023-07-09T08:13:47;8987.53;;;-142.94;nan
63347;BME280;49472;49.880;8.650;2023-07-09T08:16:13;13165.31;;;-142.94;nan
63347;BME280;49472;49.880;8.650;2023-07-09T08:18:39;13411.25;;;-142.94;nan
63347;BME280;49472;49.880;8.650;2023-07-09T08:21:04;14641.09;;;-142.94;nan
63347;BME280;49472;49.880;8.650;2023-07-09T08:23:30;15871.41;;;-142.94;nan
63347;BME280;49472;49.880;8.650;2023-07-09T08:25:57;15379.22;;;-142.94;nan
63347;BME280;49472;49.880;8.650;2023-07-09T08:28:23;17102.19;;;-142.94;nan
63347;BME280;49472;49.880;8.650;2023-07-09T08:30:51;17348.41;;;-142.94;nan
63347;BME280;49472;49.880;8.650;2023-07-09T08:33:18;18333.41;;;-142.94;nan
63347;BME280;49472;49.880;8.650;2023-07-09T08:35:44;18333.41;;;-142.94;nan
63347;BME280;49472;49.880;8.650;2023-07-09T08:38:09;19811.50;;;-142.94;nan
63347;BME280;49472;49.880;8.650;2023-07-09T08:40:40;19072.38;;;-142.94;nan
63347;BME280;49472;49.880;8.650;2023-07-09T08:43:19;20304.34;;;-142.94;nan
63347;BME280;49472;49.880;8.650;2023-07-09T08:48:33;19565.09;;;-142.94;nan
63347;BME280;49472;49.880;8.650;2023-07-09T08:51:04;20057.91;;;-142.94;nan
63347;BME280;49472;49.880;8.650;2023-07-09T08:53:40;19072.38;;;-142.94;nan
63347;BME280;49472;49.880;8.650;2023-07-09T08:56:09;19811.50;;;-142.94;nan
63347;BME280;49472;49.880;8.650;2023-07-09T08:58:34;21536.75;;;-142.94;nan
63347;BME280;49472;49.880;8.650;2023-07-09T09:01:05;21043.72;;;-142.94;nan
63347;BME280;49472;49.880;8.650;2023-07-09T09:06:15;21290.25;;;-142.94;nan
63347;BME280;49472;49.880;8.650;2023-07-09T09:11:46;21290.25;;;-142.94;nan
63347;BME280;49472;49.880;8.650;2023-07-09T09:14:37;22029.84;;;-142.94;nan
63347;BME280;49472;49.880;8.650;2023-07-09T09:17:13;22769.63;;;-142.94;nan
63347;BME280;49472;49.880;8.650;2023-07-09T09:20:03;23016.25;;;-142.94;nan
63347;BME280;49472;49.880;8.650;2023-07-09T09:22:33;23262.91;;;-142.94;nan
63347;BME280;49472;49.880;8.650;2023-07-09T09:25:11;22276.44;;;-142.94;nan
63347;BME280;49472;49.880;8.650;2023-07-09T09:27:41;21783.28;;;-142.94;nan
63347;BME280;49472;49.880;8.650;2023-07-09T09:30:22;22276.44;;;-142.94;nan
63347;BME280;49472;49.880;8.650;2023-07-09T09:33:06;25236.75;;;-142.94;nan
63347;BME280;49472;49.880;8.650;2023-07-09T09:35:37;27211.78;;;-142.94;nan
63347;BME280;49472;49.880;8.650;2023-07-09T09:38:13;29682.19;;;-142.94;nan
63347;BME280;49472;49.880;8.650;2023-07-09T09:40:39;25977.25;;;-142.94;nan
63347;BME280;49472;49.880;8.650;2023-07-09T09:43:13;27211.78;;;-142.94;nan
63347;BME280;49472;49.880;8.650;2023-07-09T09:45:40;29187.97;;;-142.94;nan
63347;BME280;49472;49.880;8.650;2023-07-09T09:48:29;29929.34;;;-142.94;nan
63347;BME280;49472;49.880;8.650;2023-07-09T09:50:55;34133.56;;;-142.94;nan
63347;BME280;49472;49.880;8.650;2023-07-09T09:53:24;34133.56;;;-142.94;nan
63347;BME280;49472;49.880;8.650;2023-07-09T09:55:53;34133.56;;;-142.94;nan
63347;BME280;49472;49.880;8.650;2023-07-09T09:58:20;40023.72;;;-142.94;nan
63347;BME280;49472;49.880;8.650;2023-07-09T10:00:50;40775.25;;;-142.94;nan
63347;BME280;49472;49.880;8.650;2023-07-09T10:03:17;41154.94;;;-142.94;nan
63347;BME280;49472;49.880;8.650;2023-07-09T10:05:57;42586.94;;;-142.94;nan
63347;BME280;49472;49.880;8.650;2023-07-09T10:10:53;43618.22;;;-142.94;nan
63347;BME280;49472;49.880;8.650;2023-07-09T10:13:29;44322.06;;;-142.94;nan
63347;BME280;49472;49.880;8.650;2023-07-09T10:21:21;48550.19;;;-142.94;nan
63347;BME280;49472;49.880;8.650;2023-07-09T10:27:16;50144.63;;;-142.94;nan
63347;BME280;49472;49.880;8.650;2023-07-09T10:33:08;51049.97;;;-142.94;nan
63347;BME280;49472;49.880;8.650;2023-07-09T10:40:45;52208.22;;;-142.94;nan
63347;BME280;49472;49.880;8.650;2023-07-09T10:43:16;52208.22;;;-142.94;nan
63347;BME280;49472;49.880;8.650;2023-07-09T10:45:53;52624.19;;;-142.94;nan
63347;BME280;49472;49.880;8.650;2023-07-09T10:48:32;52354.00;;;-142.94;nan
63347;BME280;49472;49.880;8.650;2023-07-09T10:50:59;52527.00;;;-142.94;nan
63347;BME280;49472;49.880;8.650;2023-07-09T10:55:56;53014.97;;;-142.94;nan
63347;BME280;49472;49.880;8.650;2023-07-09T11:01:28;53201.59;;;-142.94;nan
63347;BME280;49472;49.880;8.650;2023-07-09T11:03:59;53244.38;;;-142.94;nan
63347;BME280;49472;49.880;8.650;2023-07-09T11:06:37;53248.28;;;-142.94;nan
63347;BME280;49472;49.880;8.650;2023-07-09T11:09:17;53355.22;;;-142.94;nan
63347;BME280;49472;49.880;8.650;2023-07-09T11:11:49;53399.94;;;-142.94;nan
63347;BME280;49472;49.880;8.650;2023-07-09T11:14:32;53481.59;;;-142.94;nan
63347;BME280;49472;49.880;8.650;2023-07-09T11:16:58;53464.09;;;-142.94;nan
63347;BME280;49472;49.880;8.650;2023-07-09T11:19:26;53580.75;;;-142.94;nan
63347;BME280;49472;49.880;8.650;2023-07-09T11:22:13;53625.50;;;-142.94;nan
63347;BME280;49472;49.880;8.650;2023-07-09T11:24:51;53687.72;;;-142.94;nan
63347;BME280;49472;49.880;8.650;2023-07-09T11:27:23;53713.00;;;-142.94;nan
63347;BME280;49472;49.880;8.650;2023-07-09T11:32:22;53788.84;;;-142.94;nan
63347;BME280;49472;49.880;8.650;2023-07-09T11:34:48;53821.88;;;-142.94;nan
63347;BME280;49472;49.880;8.650;2023-07-09T11:37:14;53946.34;;;-142.94;nan
63347;BME280;49472;49.880;8.650;2023-07-09T11:44:51;54276.97;;;-142.94;nan
63347;BME280;49472;49.880;8.650;2023-07-09T11:47:23;54358.66;;;-142.94;nan
63347;BME280;49472;49.880;8.650;2023-07-09T11:50:01;54267.25;;;-142.94;nan
63347;BME280;49472;49.880;8.650;2023-07-09T11:52:30;54498.69;;;-142.94;nan
63347;BME280;49472;49.880;8.650;2023-07-09T11:55:02;54154.44;;;-142.94;nan
63347;BME280;49472;49.880;8.650;2023-07-09T11:57:28;53919.13;;;-142.94;nan
63347;BME280;49472;49.880;8.650;2023-07-09T11:59:59;54251.69;;;-142.94;nan
63347;BME280;49472;49.880;8.650;2023-07-09T12:02:31;54203.06;;;-142.94;nan
63347;BME280;49472;49.880;8.650;2023-07-09T12:04:58;54311.97;;;-142.94;nan
63347;BME280;49472;49.880;8.650;2023-07-09T12:07:24;54043.59;;;-142.94;nan
63347;BME280;49472;49.880;8.650;2023-07-09T12:09:50;54977.19;;;-142.94;nan
63347;BME280;49472;49.880;8.650;2023-07-09T12:14:46;54720.44;;;-142.94;nan
63347;BME280;49472;49.880;8.650;2023-07-09T12:17:11;54029.97;;;-142.94;nan
63347;BME280;49472;49.880;8.650;2023-07-09T12:19:36;54630.97;;;-142.94;nan
63347;BME280;49472;49.880;8.650;2023-07-09T12:22:06;54708.75;;;-142.94;nan
63347;BME280;49472;49.880;8.650;2023-07-09T12:24:42;54284.75;;;-142.94;nan
63347;BME280;49472;49.880;8.650;2023-07-09T12:27:25;54636.78;;;-142.94;nan
63347;BME280;49472;49.880;8.650;2023-07-09T12:29:55;53619.66;;;-142.94;nan
63347;BME280;49472;49.880;8.650;2023-07-09T12:32:21;54646.53;;;-142.94;nan
63347;BME280;49472;49.880;8.650;2023-07-09T12:34:53;54345.03;;;-142.94;nan
63347;BME280;49472;49.880;8.650;2023-07-09T12:37:19;53771.34;;;-142.94;nan
63347;BME280;49472;49.880;8.650;2023-07-09T12:39:47;53578.81;;;-142.94;nan
63347;BME280;49472;49.880;8.650;2023-07-09T12:42:18;53989.13;;;-142.94;nan
63347;BME280;49472;49.880;8.650;2023-07-09T12:44:44;53514.66;;;-142.94;nan
63347;BME280;49472;49.880;8.650;2023-07-09T12:47:15;52972.19;;;-142.94;nan
63347;BME280;49472;49.880;8.650;2023-07-09T12:49:43;52873.03;;;-142.94;nan
63347;BME280;49472;49.880;8.650;2023-07-09T12:52:19;53180.22;;;-142.94;nan
63347;BME280;49472;49.880;8.650;2023-07-09T12:54:55;52758.34;;;-142.94;nan
63347;BME280;49472;49.880;8.650;2023-07-09T12:57:21;52663.09;;;-142.94;nan
63347;BME280;49472;49.880;8.650;2023-07-09T12:59:47;53133.56;;;-142.94;nan
63347;BME280;49472;49.880;8.650;2023-07-09T13:02:26;53009.13;;;-142.94;nan
63347;BME280;49472;49.880;8.650;2023-07-09T13:05:04;52674.75;;;-142.94;nan
63347;BME280;49472;49.880;8.650;2023-07-09T13:10:06;52861.38;;;-142.94;nan
63347;BME280;49472;49.880;8.650;2023-07-09T13:12:33;52960.53;;;-142.94;nan
63347;BME280;49472;49.880;8.650;2023-07-09T13:14:59;52451.19;;;-142.94;nan
63347;BME280;49472;49.880;8.650;2023-07-09T13:17:29;53071.34;;;-142.94;nan
63347;BME280;49472;49.880;8.650;2023-07-09T13:19:55;52175.19;;;-142.94;nan
63347;BME280;49472;49.880;8.650;2023-07-09T13:22:22;52437.59;;;-142.94;nan
63347;BME280;49472;49.880;8.650;2023-07-09T13:24:48;51897.25;;;-142.94;nan
63347;BME280;49472;49.880;8.650;2023-07-09T13:27:14;52322.91;;;-142.94;nan
63347;BME280;49472;49.880;8.650;2023-07-09T13:29:41;51889.47;;;-142.94;nan
63347;BME280;49472;49.880;8.650;2023-07-09T13:32:10;52591.16;;;-142.94;nan
63347;BME280;49472;49.880;8.650;2023-07-09T13:34:37;52078.00;;;-142.94;nan
63347;BME280;49472;49.880;8.650;2023-07-09T13:37:05;51770.91;;;-142.94;nan
63347;BME280;49472;49.880;8.650;2023-07-09T13:39:30;52344.28;;;-142.94;nan
63347;BME280;49472;49.880;8.650;2023-07-09T13:41:56;51636.81;;;-142.94;nan
63347;BME280;49472;49.880;8.650;2023-07-09T13:44:28;51586.28;;;-142.94;nan
63347;BME280;49472;49.880;8.650;2023-07-09T13:47:00;50991.69;;;-142.94;nan
63347;BME280;49472;49.880;8.650;2023-07-09T13:49:26;50964.47;;;-142.94;nan
63347;BME280;49472;49.880;8.650;2023-07-09T13:51:54;50774.06;;;-142.94;nan
63347;BME280;49472;49.880;8.650;2023-07-09T13:54:32;50810.97;;;-142.94;nan